sensor_id;sensor_type;location;lat;lon;timestamp;P1;durP1;ratioP1;P2;durP2;ratioP2
48263;SDS011;34086;51.076;13.722;2023-06-26T00:00:27;11.18;;;9.85;;
48263;SDS011;34086;51.076;13.722;2023-06-26T00:01:28;11.25;;;9.38;;
48263;SDS011;34086;51.076;13.722;2023-06-26T00:02:31;10.63;;;9.52;;
48263;SDS011;34086;51.076;13.722;2023-06-26T00:03:35;10.43;;;9.32;;
48263;SDS011;34086;51.076;13.722;2023-06-26T00:04:35;10.77;;;9.02;;
48263;SDS011;34086;51.076;13.722;2023-06-26T00:05:37;11.32;;;9.50;;
48263;SDS011;34086;51.076;13.722;2023-06-26T00:06:37;10.93;;;9.32;;
48263;SDS011;34086;51.076;13.722;2023-06-26T00:07:38;11.38;;;9.57;;
48263;SDS011;34086;51.076;13.722;2023-06-26T00:08:39;11.27;;;9.60;;
48263;SDS011;34086;51.076;13.722;2023-06-26T00:09:39;10.57;;;9.48;;
48263;SDS011;34086;51.076;13.722;2023-06-26T00:10:41;11.40;;;9.77;;
48263;SDS011;34086;51.076;13.722;2023-06-26T00:11:41;12.52;;;9.70;;
48263;SDS011;34086;51.076;13.722;2023-06-26T00:12:42;11.43;;;9.25;;
48263;SDS011;34086;51.076;13.722;2023-06-26T00:13:42;11.38;;;9.57;;
48263;SDS011;34086;51.076;13.722;2023-06-26T00:14:43;12.23;;;10.15;;
48263;SDS011;34086;51.076;13.722;2023-06-26T00:15:43;14.38;;;10.27;;
48263;SDS011;34086;51.076;13.722;2023-06-26T00:16:44;12.40;;;10.07;;
48263;SDS011;34086;51.076;13.722;2023-06-26T00:17:44;13.07;;;10.10;;
48263;SDS011;34086;51.076;13.722;2023-06-26T00:18:45;10.98;;;9.55;;
48263;SDS011;34086;51.076;13.722;2023-06-26T00:19:45;10.73;;;9.60;;
48263;SDS011;34086;51.076;13.722;2023-06-26T00:20:46;11.05;;;9.90;;
48263;SDS011;34086;51.076;13.722;2023-06-26T00:21:47;10.85;;;9.75;;
48263;SDS011;34086;51.076;13.722;2023-06-26T00:22:47;11.05;;;9.95;;
48263;SDS011;34086;51.076;13.722;2023-06-26T00:23:50;10.90;;;9.75;;
48263;SDS011;34086;51.076;13.722;2023-06-26T00:24:51;10.77;;;9.68;;
48263;SDS011;34086;51.076;13.722;2023-06-26T00:25:52;12.27;;;10.05;;
48263;SDS011;34086;51.076;13.722;2023-06-26T00:26:52;11.10;;;9.95;;
48263;SDS011;34086;51.076;13.722;2023-06-26T00:27:53;12.30;;;10.05;;
48263;SDS011;34086;51.076;13.722;2023-06-26T00:28:54;13.10;;;10.10;;
48263;SDS011;34086;51.076;13.722;2023-06-26T00:29:54;10.95;;;9.80;;
48263;SDS011;34086;51.076;13.722;2023-06-26T00:30:55;10.98;;;9.73;;
48263;SDS011;34086;51.076;13.722;2023-06-26T00:31:55;13.80;;;9.82;;
48263;SDS011;34086;51.076;13.722;2023-06-26T00:32:56;11.45;;;9.77;;
48263;SDS011;34086;51.076;13.722;2023-06-26T00:33:58;10.50;;;9.00;;
48263;SDS011;34086;51.076;13.722;2023-06-26T00:34:58;13.13;;;10.20;;
48263;SDS011;34086;51.076;13.722;2023-06-26T00:35:59;11.93;;;9.88;;
48263;SDS011;34086;51.076;13.722;2023-06-26T00:36:59;12.18;;;9.88;;
48263;SDS011;34086;51.076;13.722;2023-06-26T00:38:01;11.20;;;9.20;;
48263;SDS011;34086;51.076;13.722;2023-06-26T00:39:02;11.80;;;10.02;;
48263;SDS011;34086;51.076;13.722;2023-06-26T00:40:03;11.68;;;9.82;;
48263;SDS011;34086;51.076;13.722;2023-06-26T00:41:06;11.30;;;9.88;;
48263;SDS011;34086;51.076;13.722;2023-06-26T00:42:12;11.68;;;10.02;;
48263;SDS011;34086;51.076;13.722;2023-06-26T00:43:12;10.68;;;9.55;;
48263;SDS011;34086;51.076;13.722;2023-06-26T00:44:13;11.13;;;9.25;;
48263;SDS011;34086;51.076;13.722;2023-06-26T00:45:13;12.73;;;9.60;;
48263;SDS011;34086;51.076;13.722;2023-06-26T00:46:14;10.68;;;9.57;;
48263;SDS011;34086;51.076;13.722;2023-06-26T00:47:15;10.95;;;9.82;;
48263;SDS011;34086;51.076;13.722;2023-06-26T00:48:17;13.38;;;9.88;;
48263;SDS011;34086;51.076;13.722;2023-06-26T00:49:18;13.43;;;10.15;;
48263;SDS011;34086;51.076;13.722;2023-06-26T00:50:19;11.73;;;10.13;;
48263;SDS011;34086;51.076;13.722;2023-06-26T00:51:20;12.40;;;9.75;;
48263;SDS011;34086;51.076;13.722;2023-06-26T00:52:20;13.88;;;10.48;;
48263;SDS011;34086;51.076;13.722;2023-06-26T00:53:21;12.13;;;10.18;;
48263;SDS011;34086;51.076;13.722;2023-06-26T00:54:22;14.18;;;10.40;;
48263;SDS011;34086;51.076;13.722;2023-06-26T00:55:22;13.35;;;9.98;;
48263;SDS011;34086;51.076;13.722;2023-06-26T00:56:23;13.50;;;10.48;;
48263;SDS011;34086;51.076;13.722;2023-06-26T00:57:24;11.38;;;9.95;;
48263;SDS011;34086;51.076;13.722;2023-06-26T00:58:25;13.55;;;9.65;;
48263;SDS011;34086;51.076;13.722;2023-06-26T00:59:25;12.20;;;10.07;;
48263;SDS011;34086;51.076;13.722;2023-06-26T01:00:26;12.45;;;9.90;;
48263;SDS011;34086;51.076;13.722;2023-06-26T01:01:27;12.63;;;10.23;;
48263;SDS011;34086;51.076;13.722;2023-06-26T01:02:27;11.73;;;9.88;;
48263;SDS011;34086;51.076;13.722;2023-06-26T01:03:33;10.73;;;9.60;;
48263;SDS011;34086;51.076;13.722;2023-06-26T01:04:33;12.00;;;9.77;;
48263;SDS011;34086;51.076;13.722;2023-06-26T01:05:34;11.45;;;9.70;;
48263;SDS011;34086;51.076;13.722;2023-06-26T01:06:35;10.90;;;9.80;;
48263;SDS011;34086;51.076;13.722;2023-06-26T01:07:36;13.27;;;10.18;;
48263;SDS011;34086;51.076;13.722;2023-06-26T01:08:38;11.50;;;9.98;;
48263;SDS011;34086;51.076;13.722;2023-06-26T01:09:39;13.35;;;9.75;;
48263;SDS011;34086;51.076;13.722;2023-06-26T01:10:40;12.82;;;9.65;;
48263;SDS011;34086;51.076;13.722;2023-06-26T01:11:41;11.55;;;10.07;;
48263;SDS011;34086;51.076;13.722;2023-06-26T01:12:42;12.52;;;10.07;;
48263;SDS011;34086;51.076;13.722;2023-06-26T01:13:43;10.75;;;9.65;;
48263;SDS011;34086;51.076;13.722;2023-06-26T01:14:46;13.00;;;10.23;;
48263;SDS011;34086;51.076;13.722;2023-06-26T01:15:47;12.52;;;10.27;;
48263;SDS011;34086;51.076;13.722;2023-06-26T01:16:48;11.90;;;10.20;;
48263;SDS011;34086;51.076;13.722;2023-06-26T01:17:50;11.68;;;10.38;;
48263;SDS011;34086;51.076;13.722;2023-06-26T01:18:51;12.98;;;9.82;;
48263;SDS011;34086;51.076;13.722;2023-06-26T01:19:53;14.45;;;9.77;;
48263;SDS011;34086;51.076;13.722;2023-06-26T01:20:54;13.48;;;10.32;;
48263;SDS011;34086;51.076;13.722;2023-06-26T01:22:10;12.15;;;10.88;;
48263;SDS011;34086;51.076;13.722;2023-06-26T01:23:47;12.95;;;9.98;;
48263;SDS011;34086;51.076;13.722;2023-06-26T01:25:05;11.52;;;10.15;;
48263;SDS011;34086;51.076;13.722;2023-06-26T01:26:26;12.20;;;10.18;;
48263;SDS011;34086;51.076;13.722;2023-06-26T01:27:29;11.63;;;10.30;;
48263;SDS011;34086;51.076;13.722;2023-06-26T01:28:36;13.00;;;9.93;;
48263;SDS011;34086;51.076;13.722;2023-06-26T01:29:40;14.18;;;10.35;;
48263;SDS011;34086;51.076;13.722;2023-06-26T01:30:44;13.30;;;10.38;;
48263;SDS011;34086;51.076;13.722;2023-06-26T01:31:45;14.40;;;10.43;;
48263;SDS011;34086;51.076;13.722;2023-06-26T01:32:49;13.20;;;10.45;;
48263;SDS011;34086;51.076;13.722;2023-06-26T01:33:50;13.07;;;9.82;;
48263;SDS011;34086;51.076;13.722;2023-06-26T01:34:54;12.15;;;9.82;;
48263;SDS011;34086;51.076;13.722;2023-06-26T01:35:55;14.20;;;10.70;;
48263;SDS011;34086;51.076;13.722;2023-06-26T01:36:55;12.10;;;10.77;;
48263;SDS011;34086;51.076;13.722;2023-06-26T01:39:32;12.77;;;10.88;;
48263;SDS011;34086;51.076;13.722;2023-06-26T01:40:33;11.82;;;9.95;;
48263;SDS011;34086;51.076;13.722;2023-06-26T01:41:33;13.52;;;10.25;;
48263;SDS011;34086;51.076;13.722;2023-06-26T01:42:35;12.48;;;10.25;;
48263;SDS011;34086;51.076;13.722;2023-06-26T01:43:41;13.27;;;10.52;;
48263;SDS011;34086;51.076;13.722;2023-06-26T01:44:52;12.32;;;10.80;;
48263;SDS011;34086;51.076;13.722;2023-06-26T01:45:59;13.93;;;10.40;;
48263;SDS011;34086;51.076;13.722;2023-06-26T01:47:04;11.43;;;10.18;;
48263;SDS011;34086;51.076;13.722;2023-06-26T01:48:05;12.55;;;10.35;;
48263;SDS011;34086;51.076;13.722;2023-06-26T01:49:20;12.52;;;10.25;;
48263;SDS011;34086;51.076;13.722;2023-06-26T01:51:32;14.50;;;10.38;;
48263;SDS011;34086;51.076;13.722;2023-06-26T01:52:59;11.43;;;10.23;;
48263;SDS011;34086;51.076;13.722;2023-06-26T01:54:05;12.88;;;10.00;;
48263;SDS011;34086;51.076;13.722;2023-06-26T01:56:25;12.63;;;9.85;;
48263;SDS011;34086;51.076;13.722;2023-06-26T01:57:28;12.40;;;10.02;;
48263;SDS011;34086;51.076;13.722;2023-06-26T01:58:31;11.32;;;10.13;;
48263;SDS011;34086;51.076;13.722;2023-06-26T01:59:32;11.13;;;9.85;;
48263;SDS011;34086;51.076;13.722;2023-06-26T02:00:35;13.20;;;9.60;;
48263;SDS011;34086;51.076;13.722;2023-06-26T02:01:37;12.65;;;10.48;;
48263;SDS011;34086;51.076;13.722;2023-06-26T02:02:38;11.48;;;9.82;;
48263;SDS011;34086;51.076;13.722;2023-06-26T02:03:41;13.80;;;10.20;;
48263;SDS011;34086;51.076;13.722;2023-06-26T02:04:42;13.65;;;10.23;;
48263;SDS011;34086;51.076;13.722;2023-06-26T02:05:42;13.85;;;10.48;;
48263;SDS011;34086;51.076;13.722;2023-06-26T02:06:44;10.65;;;9.55;;
48263;SDS011;34086;51.076;13.722;2023-06-26T02:07:45;12.10;;;10.07;;
48263;SDS011;34086;51.076;13.722;2023-06-26T02:08:45;12.73;;;9.88;;
48263;SDS011;34086;51.076;13.722;2023-06-26T02:09:46;11.23;;;10.07;;
48263;SDS011;34086;51.076;13.722;2023-06-26T02:10:47;12.93;;;10.40;;
48263;SDS011;34086;51.076;13.722;2023-06-26T02:11:47;11.10;;;9.90;;
48263;SDS011;34086;51.076;13.722;2023-06-26T02:12:48;11.32;;;9.90;;
48263;SDS011;34086;51.076;13.722;2023-06-26T02:13:48;11.85;;;10.32;;
48263;SDS011;34086;51.076;13.722;2023-06-26T02:14:49;13.77;;;10.20;;
48263;SDS011;34086;51.076;13.722;2023-06-26T02:15:51;12.65;;;10.25;;
48263;SDS011;34086;51.076;13.722;2023-06-26T02:16:51;11.30;;;10.13;;
48263;SDS011;34086;51.076;13.722;2023-06-26T02:17:52;12.77;;;9.85;;
48263;SDS011;34086;51.076;13.722;2023-06-26T02:18:52;10.98;;;9.63;;
48263;SDS011;34086;51.076;13.722;2023-06-26T02:19:54;15.25;;;10.52;;
48263;SDS011;34086;51.076;13.722;2023-06-26T02:20:55;11.68;;;9.68;;
48263;SDS011;34086;51.076;13.722;2023-06-26T02:21:55;12.02;;;10.70;;
48263;SDS011;34086;51.076;13.722;2023-06-26T02:22:58;11.40;;;10.18;;
48263;SDS011;34086;51.076;13.722;2023-06-26T02:23:59;12.27;;;10.20;;
48263;SDS011;34086;51.076;13.722;2023-06-26T02:24:59;12.13;;;10.15;;
48263;SDS011;34086;51.076;13.722;2023-06-26T02:26:00;12.20;;;10.23;;
48263;SDS011;34086;51.076;13.722;2023-06-26T02:27:00;12.90;;;9.88;;
48263;SDS011;34086;51.076;13.722;2023-06-26T02:28:01;12.40;;;10.02;;
48263;SDS011;34086;51.076;13.722;2023-06-26T02:29:01;14.40;;;10.07;;
48263;SDS011;34086;51.076;13.722;2023-06-26T02:30:02;11.75;;;10.02;;
48263;SDS011;34086;51.076;13.722;2023-06-26T02:31:03;14.63;;;10.25;;
48263;SDS011;34086;51.076;13.722;2023-06-26T02:32:06;12.77;;;10.27;;
48263;SDS011;34086;51.076;13.722;2023-06-26T02:33:07;11.38;;;9.77;;
48263;SDS011;34086;51.076;13.722;2023-06-26T02:34:09;11.45;;;9.63;;
48263;SDS011;34086;51.076;13.722;2023-06-26T02:35:10;14.27;;;10.20;;
48263;SDS011;34086;51.076;13.722;2023-06-26T02:36:15;12.02;;;9.85;;
48263;SDS011;34086;51.076;13.722;2023-06-26T02:37:16;12.05;;;10.50;;
48263;SDS011;34086;51.076;13.722;2023-06-26T02:38:17;12.82;;;10.18;;
48263;SDS011;34086;51.076;13.722;2023-06-26T02:39:17;12.88;;;10.57;;
48263;SDS011;34086;51.076;13.722;2023-06-26T02:40:18;12.32;;;9.82;;
48263;SDS011;34086;51.076;13.722;2023-06-26T02:41:19;12.73;;;10.27;;
48263;SDS011;34086;51.076;13.722;2023-06-26T02:42:20;13.52;;;10.30;;
48263;SDS011;34086;51.076;13.722;2023-06-26T02:43:20;12.77;;;10.10;;
48263;SDS011;34086;51.076;13.722;2023-06-26T02:44:21;13.25;;;10.40;;
48263;SDS011;34086;51.076;13.722;2023-06-26T02:45:22;11.93;;;10.65;;
48263;SDS011;34086;51.076;13.722;2023-06-26T02:46:22;12.57;;;10.52;;
48263;SDS011;34086;51.076;13.722;2023-06-26T02:47:23;12.55;;;10.20;;
48263;SDS011;34086;51.076;13.722;2023-06-26T02:48:23;12.68;;;10.60;;
48263;SDS011;34086;51.076;13.722;2023-06-26T02:49:24;15.02;;;10.38;;
48263;SDS011;34086;51.076;13.722;2023-06-26T02:50:24;13.10;;;10.68;;
48263;SDS011;34086;51.076;13.722;2023-06-26T02:51:47;12.10;;;10.38;;
48263;SDS011;34086;51.076;13.722;2023-06-26T02:53:00;12.95;;;10.65;;
48263;SDS011;34086;51.076;13.722;2023-06-26T02:54:01;11.80;;;10.50;;
48263;SDS011;34086;51.076;13.722;2023-06-26T02:55:01;14.88;;;10.32;;
48263;SDS011;34086;51.076;13.722;2023-06-26T02:56:03;12.55;;;10.32;;
48263;SDS011;34086;51.076;13.722;2023-06-26T02:57:05;12.80;;;10.45;;
48263;SDS011;34086;51.076;13.722;2023-06-26T02:58:07;14.50;;;10.38;;
48263;SDS011;34086;51.076;13.722;2023-06-26T02:59:08;13.57;;;10.32;;
48263;SDS011;34086;51.076;13.722;2023-06-26T03:00:09;12.80;;;10.48;;
48263;SDS011;34086;51.076;13.722;2023-06-26T03:01:17;13.77;;;10.73;;
48263;SDS011;34086;51.076;13.722;2023-06-26T03:02:19;13.93;;;10.65;;
48263;SDS011;34086;51.076;13.722;2023-06-26T03:03:20;15.30;;;11.25;;
48263;SDS011;34086;51.076;13.722;2023-06-26T03:04:20;14.07;;;11.18;;
48263;SDS011;34086;51.076;13.722;2023-06-26T03:05:21;12.70;;;10.90;;
48263;SDS011;34086;51.076;13.722;2023-06-26T03:06:24;12.60;;;11.27;;
48263;SDS011;34086;51.076;13.722;2023-06-26T03:07:24;14.68;;;10.80;;
48263;SDS011;34086;51.076;13.722;2023-06-26T03:08:26;13.38;;;10.55;;
48263;SDS011;34086;51.076;13.722;2023-06-26T03:09:26;16.33;;;10.70;;
48263;SDS011;34086;51.076;13.722;2023-06-26T03:10:27;15.27;;;11.00;;
48263;SDS011;34086;51.076;13.722;2023-06-26T03:11:28;13.32;;;10.77;;
48263;SDS011;34086;51.076;13.722;2023-06-26T03:12:29;12.95;;;10.93;;
48263;SDS011;34086;51.076;13.722;2023-06-26T03:13:29;12.70;;;11.00;;
48263;SDS011;34086;51.076;13.722;2023-06-26T03:14:30;15.95;;;10.52;;
48263;SDS011;34086;51.076;13.722;2023-06-26T03:15:32;13.27;;;11.05;;
48263;SDS011;34086;51.076;13.722;2023-06-26T03:16:32;15.38;;;11.07;;
48263;SDS011;34086;51.076;13.722;2023-06-26T03:17:33;14.20;;;10.98;;
48263;SDS011;34086;51.076;13.722;2023-06-26T03:18:38;14.93;;;10.98;;
48263;SDS011;34086;51.076;13.722;2023-06-26T03:19:39;12.32;;;11.02;;
48263;SDS011;34086;51.076;13.722;2023-06-26T03:20:55;14.77;;;11.10;;
48263;SDS011;34086;51.076;13.722;2023-06-26T03:21:56;12.60;;;10.68;;
48263;SDS011;34086;51.076;13.722;2023-06-26T03:22:56;13.93;;;10.43;;
48263;SDS011;34086;51.076;13.722;2023-06-26T03:23:57;14.35;;;11.15;;
48263;SDS011;34086;51.076;13.722;2023-06-26T03:24:58;13.45;;;10.68;;
48263;SDS011;34086;51.076;13.722;2023-06-26T03:25:59;14.57;;;10.77;;
48263;SDS011;34086;51.076;13.722;2023-06-26T03:27:03;13.77;;;10.35;;
48263;SDS011;34086;51.076;13.722;2023-06-26T03:28:03;13.55;;;10.77;;
48263;SDS011;34086;51.076;13.722;2023-06-26T03:29:05;14.05;;;11.18;;
48263;SDS011;34086;51.076;13.722;2023-06-26T03:30:06;11.93;;;10.63;;
48263;SDS011;34086;51.076;13.722;2023-06-26T03:31:09;15.88;;;11.73;;
48263;SDS011;34086;51.076;13.722;2023-06-26T03:32:10;12.57;;;10.52;;
48263;SDS011;34086;51.076;13.722;2023-06-26T03:33:11;14.80;;;11.02;;
48263;SDS011;34086;51.076;13.722;2023-06-26T03:34:11;13.30;;;10.98;;
48263;SDS011;34086;51.076;13.722;2023-06-26T03:35:12;13.25;;;11.18;;
48263;SDS011;34086;51.076;13.722;2023-06-26T03:36:13;14.38;;;10.90;;
48263;SDS011;34086;51.076;13.722;2023-06-26T03:37:14;14.40;;;10.80;;
48263;SDS011;34086;51.076;13.722;2023-06-26T03:38:15;13.38;;;10.82;;
48263;SDS011;34086;51.076;13.722;2023-06-26T03:39:18;14.75;;;10.77;;
48263;SDS011;34086;51.076;13.722;2023-06-26T03:40:18;14.73;;;10.80;;
48263;SDS011;34086;51.076;13.722;2023-06-26T03:41:19;14.60;;;11.38;;
48263;SDS011;34086;51.076;13.722;2023-06-26T03:42:20;13.18;;;10.88;;
48263;SDS011;34086;51.076;13.722;2023-06-26T03:43:20;13.52;;;10.63;;
48263;SDS011;34086;51.076;13.722;2023-06-26T03:44:43;15.52;;;11.40;;
48263;SDS011;34086;51.076;13.722;2023-06-26T03:45:43;13.77;;;10.85;;
48263;SDS011;34086;51.076;13.722;2023-06-26T03:46:44;14.63;;;10.75;;
48263;SDS011;34086;51.076;13.722;2023-06-26T03:47:45;12.80;;;10.80;;
48263;SDS011;34086;51.076;13.722;2023-06-26T03:48:48;12.45;;;10.70;;
48263;SDS011;34086;51.076;13.722;2023-06-26T03:49:49;13.93;;;10.70;;
48263;SDS011;34086;51.076;13.722;2023-06-26T03:50:50;15.02;;;11.48;;
48263;SDS011;34086;51.076;13.722;2023-06-26T03:51:51;12.75;;;10.90;;
48263;SDS011;34086;51.076;13.722;2023-06-26T03:52:52;13.70;;;10.80;;
48263;SDS011;34086;51.076;13.722;2023-06-26T03:53:54;13.52;;;10.95;;
48263;SDS011;34086;51.076;13.722;2023-06-26T03:54:54;13.18;;;11.20;;
48263;SDS011;34086;51.076;13.722;2023-06-26T03:55:55;15.27;;;11.32;;
48263;SDS011;34086;51.076;13.722;2023-06-26T03:56:57;14.90;;;11.30;;
48263;SDS011;34086;51.076;13.722;2023-06-26T03:57:57;15.13;;;11.40;;
48263;SDS011;34086;51.076;13.722;2023-06-26T03:58:58;13.65;;;11.07;;
48263;SDS011;34086;51.076;13.722;2023-06-26T04:00:00;17.92;;;11.27;;
48263;SDS011;34086;51.076;13.722;2023-06-26T04:01:01;12.82;;;11.38;;
48263;SDS011;34086;51.076;13.722;2023-06-26T04:02:02;17.08;;;10.90;;
48263;SDS011;34086;51.076;13.722;2023-06-26T04:03:03;13.25;;;10.68;;
48263;SDS011;34086;51.076;13.722;2023-06-26T04:04:04;14.93;;;10.85;;
48263;SDS011;34086;51.076;13.722;2023-06-26T04:05:06;15.02;;;10.88;;
48263;SDS011;34086;51.076;13.722;2023-06-26T04:06:08;15.35;;;11.07;;
48263;SDS011;34086;51.076;13.722;2023-06-26T04:07:09;14.38;;;10.68;;
48263;SDS011;34086;51.076;13.722;2023-06-26T04:08:11;14.98;;;10.68;;
48263;SDS011;34086;51.076;13.722;2023-06-26T04:09:11;14.20;;;10.68;;
48263;SDS011;34086;51.076;13.722;2023-06-26T04:10:12;14.35;;;10.70;;
48263;SDS011;34086;51.076;13.722;2023-06-26T04:11:12;14.88;;;10.27;;
48263;SDS011;34086;51.076;13.722;2023-06-26T04:12:13;17.95;;;10.07;;
48263;SDS011;34086;51.076;13.722;2023-06-26T04:13:14;20.27;;;10.43;;
48263;SDS011;34086;51.076;13.722;2023-06-26T04:14:14;11.40;;;9.70;;
48263;SDS011;34086;51.076;13.722;2023-06-26T04:15:15;14.18;;;10.02;;
48263;SDS011;34086;51.076;13.722;2023-06-26T04:16:15;13.65;;;9.70;;
48263;SDS011;34086;51.076;13.722;2023-06-26T04:17:16;14.13;;;9.23;;
48263;SDS011;34086;51.076;13.722;2023-06-26T04:18:16;13.55;;;10.07;;
48263;SDS011;34086;51.076;13.722;2023-06-26T04:19:20;13.93;;;9.80;;
48263;SDS011;34086;51.076;13.722;2023-06-26T04:20:20;14.40;;;9.23;;
48263;SDS011;34086;51.076;13.722;2023-06-26T04:21:21;12.35;;;9.20;;
48263;SDS011;34086;51.076;13.722;2023-06-26T04:22:24;14.23;;;9.35;;
48263;SDS011;34086;51.076;13.722;2023-06-26T04:23:25;13.25;;;9.23;;
48263;SDS011;34086;51.076;13.722;2023-06-26T04:24:26;13.25;;;9.43;;
48263;SDS011;34086;51.076;13.722;2023-06-26T04:25:26;15.00;;;10.30;;
48263;SDS011;34086;51.076;13.722;2023-06-26T04:26:29;11.20;;;9.27;;
48263;SDS011;34086;51.076;13.722;2023-06-26T04:27:29;15.40;;;9.65;;
48263;SDS011;34086;51.076;13.722;2023-06-26T04:28:30;12.55;;;9.23;;
48263;SDS011;34086;51.076;13.722;2023-06-26T04:29:35;12.55;;;8.95;;
48263;SDS011;34086;51.076;13.722;2023-06-26T04:30:35;13.00;;;9.18;;
48263;SDS011;34086;51.076;13.722;2023-06-26T04:31:36;12.93;;;9.00;;
48263;SDS011;34086;51.076;13.722;2023-06-26T04:32:36;10.60;;;8.48;;
48263;SDS011;34086;51.076;13.722;2023-06-26T04:33:37;12.88;;;8.82;;
48263;SDS011;34086;51.076;13.722;2023-06-26T04:34:38;10.48;;;8.27;;
48263;SDS011;34086;51.076;13.722;2023-06-26T04:35:41;13.07;;;8.75;;
48263;SDS011;34086;51.076;13.722;2023-06-26T04:36:44;11.40;;;8.45;;
48263;SDS011;34086;51.076;13.722;2023-06-26T04:37:47;12.35;;;8.43;;
48263;SDS011;34086;51.076;13.722;2023-06-26T04:38:48;11.48;;;8.82;;
48263;SDS011;34086;51.076;13.722;2023-06-26T04:39:50;10.18;;;8.80;;
48263;SDS011;34086;51.076;13.722;2023-06-26T04:40:50;9.40;;;8.40;;
48263;SDS011;34086;51.076;13.722;2023-06-26T04:41:51;11.48;;;8.38;;
48263;SDS011;34086;51.076;13.722;2023-06-26T04:42:52;11.07;;;8.50;;
48263;SDS011;34086;51.076;13.722;2023-06-26T04:43:53;10.32;;;8.60;;
48263;SDS011;34086;51.076;13.722;2023-06-26T04:44:53;13.80;;;8.43;;
48263;SDS011;34086;51.076;13.722;2023-06-26T04:45:54;12.80;;;8.93;;
48263;SDS011;34086;51.076;13.722;2023-06-26T04:46:54;12.00;;;8.13;;
48263;SDS011;34086;51.076;13.722;2023-06-26T04:47:55;11.18;;;8.77;;
48263;SDS011;34086;51.076;13.722;2023-06-26T04:48:56;11.55;;;8.52;;
48263;SDS011;34086;51.076;13.722;2023-06-26T04:49:58;12.90;;;8.20;;
48263;SDS011;34086;51.076;13.722;2023-06-26T04:50:58;11.80;;;8.02;;
48263;SDS011;34086;51.076;13.722;2023-06-26T04:51:59;10.23;;;8.57;;
48263;SDS011;34086;51.076;13.722;2023-06-26T04:53:00;11.30;;;8.60;;
48263;SDS011;34086;51.076;13.722;2023-06-26T04:54:00;12.68;;;8.35;;
48263;SDS011;34086;51.076;13.722;2023-06-26T04:55:01;13.25;;;9.63;;
48263;SDS011;34086;51.076;13.722;2023-06-26T04:56:01;14.48;;;9.18;;
48263;SDS011;34086;51.076;13.722;2023-06-26T04:57:02;10.88;;;8.88;;
48263;SDS011;34086;51.076;13.722;2023-06-26T04:58:03;11.23;;;8.27;;
48263;SDS011;34086;51.076;13.722;2023-06-26T04:59:04;9.25;;;7.57;;
48263;SDS011;34086;51.076;13.722;2023-06-26T05:00:05;11.00;;;7.90;;
48263;SDS011;34086;51.076;13.722;2023-06-26T05:01:12;14.13;;;8.15;;
48263;SDS011;34086;51.076;13.722;2023-06-26T05:02:13;11.45;;;8.05;;
48263;SDS011;34086;51.076;13.722;2023-06-26T05:03:17;12.05;;;7.80;;
48263;SDS011;34086;51.076;13.722;2023-06-26T05:04:18;8.90;;;7.93;;
48263;SDS011;34086;51.076;13.722;2023-06-26T05:05:19;9.25;;;7.50;;
48263;SDS011;34086;51.076;13.722;2023-06-26T05:06:19;10.10;;;8.02;;
48263;SDS011;34086;51.076;13.722;2023-06-26T05:07:20;10.35;;;8.07;;
48263;SDS011;34086;51.076;13.722;2023-06-26T05:09:22;9.90;;;7.40;;
48263;SDS011;34086;51.076;13.722;2023-06-26T05:10:23;8.57;;;7.22;;
48263;SDS011;34086;51.076;13.722;2023-06-26T05:11:24;9.52;;;7.97;;
48263;SDS011;34086;51.076;13.722;2023-06-26T05:12:25;9.55;;;7.60;;
48263;SDS011;34086;51.076;13.722;2023-06-26T05:13:25;8.90;;;8.00;;
48263;SDS011;34086;51.076;13.722;2023-06-26T05:14:26;8.82;;;7.93;;
48263;SDS011;34086;51.076;13.722;2023-06-26T05:15:27;10.35;;;8.15;;
48263;SDS011;34086;51.076;13.722;2023-06-26T05:16:27;9.65;;;8.07;;
48263;SDS011;34086;51.076;13.722;2023-06-26T05:17:28;9.95;;;7.90;;
48263;SDS011;34086;51.076;13.722;2023-06-26T05:18:28;9.85;;;7.35;;
48263;SDS011;34086;51.076;13.722;2023-06-26T05:19:29;12.38;;;7.70;;
48263;SDS011;34086;51.076;13.722;2023-06-26T05:20:30;11.27;;;7.53;;
48263;SDS011;34086;51.076;13.722;2023-06-26T05:21:30;8.68;;;7.50;;
48263;SDS011;34086;51.076;13.722;2023-06-26T05:22:34;11.55;;;8.43;;
48263;SDS011;34086;51.076;13.722;2023-06-26T05:23:38;12.52;;;8.27;;
48263;SDS011;34086;51.076;13.722;2023-06-26T05:24:39;10.07;;;8.07;;
48263;SDS011;34086;51.076;13.722;2023-06-26T05:25:40;8.00;;;7.22;;
48263;SDS011;34086;51.076;13.722;2023-06-26T05:26:41;10.77;;;8.00;;
48263;SDS011;34086;51.076;13.722;2023-06-26T05:27:41;12.07;;;7.95;;
48263;SDS011;34086;51.076;13.722;2023-06-26T05:28:42;11.50;;;7.95;;
48263;SDS011;34086;51.076;13.722;2023-06-26T05:29:48;8.52;;;7.55;;
48263;SDS011;34086;51.076;13.722;2023-06-26T05:30:49;8.88;;;7.25;;
48263;SDS011;34086;51.076;13.722;2023-06-26T05:31:50;8.82;;;7.65;;
48263;SDS011;34086;51.076;13.722;2023-06-26T05:32:53;8.30;;;7.50;;
48263;SDS011;34086;51.076;13.722;2023-06-26T05:33:55;9.93;;;7.82;;
48263;SDS011;34086;51.076;13.722;2023-06-26T05:34:57;11.77;;;7.90;;
48263;SDS011;34086;51.076;13.722;2023-06-26T05:36:01;11.10;;;7.85;;
48263;SDS011;34086;51.076;13.722;2023-06-26T05:37:05;10.57;;;7.40;;
48263;SDS011;34086;51.076;13.722;2023-06-26T05:38:07;11.80;;;8.05;;
48263;SDS011;34086;51.076;13.722;2023-06-26T05:39:07;12.50;;;7.93;;
48263;SDS011;34086;51.076;13.722;2023-06-26T05:40:08;9.80;;;7.35;;
48263;SDS011;34086;51.076;13.722;2023-06-26T05:41:09;8.73;;;7.40;;
48263;SDS011;34086;51.076;13.722;2023-06-26T05:42:10;9.35;;;7.32;;
48263;SDS011;34086;51.076;13.722;2023-06-26T05:43:11;10.00;;;7.20;;
48263;SDS011;34086;51.076;13.722;2023-06-26T05:44:12;12.60;;;7.45;;
48263;SDS011;34086;51.076;13.722;2023-06-26T05:45:13;10.65;;;7.18;;
48263;SDS011;34086;51.076;13.722;2023-06-26T05:46:13;10.73;;;7.57;;
48263;SDS011;34086;51.076;13.722;2023-06-26T05:47:14;8.10;;;6.90;;
48263;SDS011;34086;51.076;13.722;2023-06-26T05:48:14;8.23;;;7.40;;
48263;SDS011;34086;51.076;13.722;2023-06-26T05:49:15;8.68;;;7.15;;
48263;SDS011;34086;51.076;13.722;2023-06-26T05:50:17;8.50;;;7.13;;
48263;SDS011;34086;51.076;13.722;2023-06-26T05:51:18;9.35;;;7.53;;
48263;SDS011;34086;51.076;13.722;2023-06-26T05:52:19;8.95;;;7.22;;
48263;SDS011;34086;51.076;13.722;2023-06-26T05:53:20;8.10;;;7.15;;
48263;SDS011;34086;51.076;13.722;2023-06-26T05:54:21;9.00;;;7.65;;
48263;SDS011;34086;51.076;13.722;2023-06-26T05:55:22;9.95;;;7.78;;
48263;SDS011;34086;51.076;13.722;2023-06-26T05:56:23;10.25;;;7.50;;
48263;SDS011;34086;51.076;13.722;2023-06-26T05:57:24;9.52;;;6.90;;
48263;SDS011;34086;51.076;13.722;2023-06-26T05:58:27;9.57;;;7.40;;
48263;SDS011;34086;51.076;13.722;2023-06-26T05:59:28;11.68;;;7.20;;
48263;SDS011;34086;51.076;13.722;2023-06-26T06:00:32;7.90;;;7.07;;
48263;SDS011;34086;51.076;13.722;2023-06-26T06:01:32;9.57;;;6.70;;
48263;SDS011;34086;51.076;13.722;2023-06-26T06:02:34;9.10;;;7.20;;
48263;SDS011;34086;51.076;13.722;2023-06-26T06:03:36;9.52;;;6.78;;
48263;SDS011;34086;51.076;13.722;2023-06-26T06:04:37;10.10;;;8.48;;